Terminal Aerodrome Forecast
Issued by NWS

Home | Current Version | Previous Version | Text Only | Print | Product List | Glossary On
Versions: 1 2 3 4 5 6 7 8 9 10 11 12 13 14 15 16
000
FTUS45 KREV 061736
TAFCXP
TAF
KCXP 061736Z 0618/0718 VRB04KT P6SM FEW015 BKN035
     FM062200 09010G16KT 6SM -SHRA VCTS SCT025 BKN040CB
     FM070200 35006KT P6SM VCSH FEW010 BKN035
     FM071000 VRB04KT 4SM RA BR SCT015 OVC030=

USA.gov is the U.S. government's official web portal to all federal, state and local government web resources and services.